Time;durP1;ratioP1;P1;durP2;ratioP2;P2;SDS_P1;SDS_P2;PMS_P1;PMS_P2;Temp;Humidity;BMP_temperature;BMP_pressure;BME280_temperature;BME280_humidity;BME280_pressure;Samples;Min_cycle;Max_cycle;Signal;HPM_P1;HPM_P2
2022/03/02 00:00:10;;;;;;;43.22;24.15;;;6.50;99.90;;;;;;5054740;28;20116;-56
2022/03/02 00:02:36;;;;;;;37.75;22.88;;;6.60;99.90;;;;;;5054539;28;20122;-56
2022/03/02 00:05:02;;;;;;;39.15;23.10;;;6.50;99.90;;;;;;5052705;28;20412;-55
2022/03/02 00:07:27;;;;;;;38.88;24.30;;;6.50;99.90;;;;;;5050212;28;20419;-54
2022/03/02 00:09:53;;;;;;;42.45;24.65;;;6.50;99.90;;;;;;5054541;28;20040;-55
2022/03/02 00:12:18;;;;;;;37.80;23.08;;;6.50;99.90;;;;;;5054576;28;20099;-56
2022/03/02 00:14:44;;;;;;;38.03;21.77;;;6.50;99.90;;;;;;5053386;28;20480;-55
2022/03/02 00:17:10;;;;;;;37.50;22.02;;;6.50;99.90;;;;;;5052506;28;20076;-54
2022/03/02 00:19:36;;;;;;;40.97;24.25;;;6.50;99.90;;;;;;5054271;28;20121;-56
2022/03/02 00:22:01;;;;;;;37.33;21.95;;;6.50;99.90;;;;;;5054402;28;20037;-56
2022/03/02 00:24:27;;;;;;;39.20;24.70;;;6.50;99.90;;;;;;5053267;28;20443;-56
2022/03/02 00:26:53;;;;;;;37.88;23.15;;;6.50;99.90;;;;;;5040167;28;20521;-56
2022/03/02 00:29:18;;;;;;;39.55;23.83;;;6.50;99.90;;;;;;5054069;28;20041;-55
2022/03/02 00:31:44;;;;;;;41.63;23.50;;;6.50;99.90;;;;;;5054049;28;20029;-56
2022/03/02 00:34:09;;;;;;;42.38;24.50;;;6.50;99.90;;;;;;5053934;28;20109;-56
2022/03/02 00:36:35;;;;;;;41.20;24.75;;;6.50;99.90;;;;;;5052934;28;20116;-55
2022/03/02 00:39:01;;;;;;;41.35;24.58;;;6.50;99.90;;;;;;5053864;28;20025;-56
2022/03/02 00:41:26;;;;;;;41.65;23.85;;;6.40;99.90;;;;;;5054137;28;20045;-53
2022/03/02 00:43:52;;;;;;;37.35;23.33;;;6.40;99.90;;;;;;5053723;28;20504;-56
2022/03/02 00:46:17;;;;;;;41.08;24.80;;;6.40;99.90;;;;;;5052773;28;20044;-56
2022/03/02 00:48:43;;;;;;;39.03;23.73;;;6.40;99.90;;;;;;5054176;28;20480;-56
2022/03/02 00:51:09;;;;;;;40.17;23.08;;;6.40;99.90;;;;;;5053817;28;20072;-55
2022/03/02 00:53:35;;;;;;;39.83;22.42;;;6.40;99.90;;;;;;5052225;28;20041;-54
2022/03/02 00:56:01;;;;;;;38.95;23.35;;;6.50;99.90;;;;;;5052986;28;20455;-54
2022/03/02 00:58:26;;;;;;;40.83;24.17;;;6.40;99.90;;;;;;5053809;28;20065;-56
2022/03/02 01:00:52;;;;;;;40.65;24.33;;;6.40;99.90;;;;;;5053555;28;20040;-56
2022/03/02 01:03:17;;;;;;;39.03;23.33;;;6.40;99.90;;;;;;5053625;28;20044;-56
2022/03/02 01:05:43;;;;;;;40.20;23.23;;;6.50;99.90;;;;;;5052786;28;20032;-55
2022/03/02 01:08:09;;;;;;;40.50;23.13;;;6.50;99.90;;;;;;5053091;28;20045;-56
2022/03/02 01:10:34;;;;;;;41.20;23.13;;;6.40;99.90;;;;;;5053541;28;20033;-55
2022/03/02 01:13:00;;;;;;;42.17;25.25;;;6.40;99.90;;;;;;5053454;28;20041;-55
2022/03/02 01:15:26;;;;;;;38.88;24.60;;;6.40;99.90;;;;;;5051614;28;20057;-55
2022/03/02 01:17:51;;;;;;;41.13;24.25;;;6.30;99.90;;;;;;5051999;28;20036;-55
2022/03/02 01:20:17;;;;;;;42.90;24.88;;;6.40;99.90;;;;;;5053320;28;20075;-55
2022/03/02 01:22:43;;;;;;;38.90;24.48;;;6.40;99.90;;;;;;5053211;28;20037;-56
2022/03/02 01:25:10;;;;;;;38.60;24.02;;;6.40;99.90;;;;;;5051197;28;20455;-55
2022/03/02 01:27:37;;;;;;;41.17;23.95;;;6.40;99.90;;;;;;5052944;28;20407;-55
2022/03/02 01:30:05;;;;;;;41.50;24.98;;;6.40;99.90;;;;;;5052981;28;20091;-56
2022/03/02 01:32:30;;;;;;;42.13;24.42;;;6.40;99.90;;;;;;5053037;28;20041;-56
2022/03/02 01:34:56;;;;;;;42.75;25.75;;;6.40;99.90;;;;;;5048706;28;20052;-55
2022/03/02 01:37:22;;;;;;;39.83;23.50;;;6.30;99.90;;;;;;5052665;28;20036;-56
2022/03/02 01:39:48;;;;;;;39.20;24.23;;;6.30;99.90;;;;;;5045687;28;20119;-53
2022/03/02 01:42:14;;;;;;;42.67;23.88;;;6.30;99.90;;;;;;5052983;28;20112;-55
2022/03/02 01:44:40;;;;;;;37.47;22.65;;;6.40;99.90;;;;;;5052112;28;20562;-56
2022/03/02 01:47:06;;;;;;;40.20;23.95;;;6.40;99.90;;;;;;5052166;28;20490;-56
2022/03/02 01:49:32;;;;;;;43.58;25.05;;;6.40;99.90;;;;;;5042359;28;20053;-56
2022/03/02 01:51:58;;;;;;;37.45;22.92;;;6.40;99.90;;;;;;5032089;28;20429;-55
2022/03/02 01:54:24;;;;;;;43.17;25.17;;;6.40;99.90;;;;;;5044830;28;20048;-56
2022/03/02 01:56:50;;;;;;;45.58;25.65;;;6.40;99.90;;;;;;5051289;28;20029;-56
2022/03/02 01:59:15;;;;;;;43.08;24.73;;;6.40;99.90;;;;;;5052174;28;20041;-56
2022/03/02 02:01:42;;;;;;;40.38;24.50;;;6.40;99.90;;;;;;5052662;28;20039;-55
2022/03/02 02:04:07;;;;;;;46.20;25.33;;;6.40;99.90;;;;;;5051850;28;20489;-55
2022/03/02 02:06:33;;;;;;;42.72;24.58;;;6.30;99.90;;;;;;5052148;28;20045;-55
2022/03/02 02:08:59;;;;;;;39.15;23.65;;;6.20;99.90;;;;;;5052046;28;20032;-56
2022/03/02 02:11:25;;;;;;;39.85;24.77;;;6.20;99.90;;;;;;5052494;28;20033;-56
2022/03/02 02:13:51;;;;;;;41.50;25.67;;;6.20;99.90;;;;;;5051452;28;20041;-56
2022/03/02 02:16:20;;;;;;;42.75;25.52;;;6.20;99.90;;;;;;5051251;28;20041;-56
2022/03/02 02:18:46;;;;;;;44.72;25.33;;;6.20;99.90;;;;;;5052135;28;20033;-55
2022/03/02 02:21:12;;;;;;;43.15;23.55;;;6.20;99.90;;;;;;5051985;28;20374;-56
2022/03/02 02:23:38;;;;;;;45.75;25.35;;;6.20;99.90;;;;;;5051906;28;20075;-54
2022/03/02 02:26:06;;;;;;;44.60;25.58;;;6.10;99.90;;;;;;5051935;28;20049;-56
2022/03/02 02:28:32;;;;;;;44.05;26.10;;;6.20;99.90;;;;;;5051829;28;20037;-56
2022/03/02 02:30:59;;;;;;;40.05;23.92;;;6.10;99.90;;;;;;5051923;28;20056;-56
2022/03/02 02:33:26;;;;;;;43.50;25.08;;;6.20;99.90;;;;;;5051148;28;20037;-56
2022/03/02 02:35:52;;;;;;;42.47;23.88;;;6.20;99.90;;;;;;5051912;28;20404;-56
2022/03/02 02:38:20;;;;;;;43.47;24.50;;;6.20;99.90;;;;;;5051848;28;20036;-56
2022/03/02 02:40:46;;;;;;;43.47;24.00;;;6.20;99.90;;;;;;5051955;28;20063;-54
2022/03/02 02:43:11;;;;;;;41.97;23.90;;;6.20;99.90;;;;;;5051365;28;20037;-56
2022/03/02 02:45:37;;;;;;;44.53;24.80;;;6.20;99.90;;;;;;5051629;28;20454;-56
2022/03/02 02:48:04;;;;;;;43.13;24.08;;;6.20;99.90;;;;;;5051321;28;20493;-56
2022/03/02 02:50:35;;;;;;;44.15;24.73;;;6.10;99.90;;;;;;5051812;28;20055;-54
2022/03/02 02:53:09;;;;;;;42.35;25.13;;;6.00;99.90;;;;;;5051440;28;20382;-55
2022/03/02 02:55:36;;;;;;;42.33;24.60;;;6.00;99.90;;;;;;5051708;28;20045;-55
2022/03/02 02:58:03;;;;;;;42.00;25.60;;;6.00;99.90;;;;;;5051130;28;20078;-56
2022/03/02 03:00:31;;;;;;;41.88;24.25;;;6.00;99.90;;;;;;5051419;28;20041;-55
2022/03/02 03:02:58;;;;;;;44.47;25.48;;;6.00;99.90;;;;;;5051730;28;20098;-55
2022/03/02 03:05:25;;;;;;;43.35;25.02;;;6.00;99.90;;;;;;5050916;28;20048;-55
2022/03/02 03:07:53;;;;;;;42.65;25.40;;;5.90;99.90;;;;;;5051409;28;20116;-55
2022/03/02 03:10:19;;;;;;;43.70;25.63;;;5.80;99.90;;;;;;5051563;28;20094;-53
2022/03/02 03:12:46;;;;;;;45.58;25.73;;;5.80;99.90;;;;;;5051323;28;20041;-55
2022/03/02 03:15:14;;;;;;;45.00;25.15;;;5.90;99.90;;;;;;5042763;28;20064;-56
2022/03/02 03:17:39;;;;;;;45.67;23.92;;;5.90;99.90;;;;;;5051441;28;20040;-56
2022/03/02 03:20:08;;;;;;;47.22;26.67;;;5.90;99.90;;;;;;5052323;28;20037;-56
2022/03/02 03:22:33;;;;;;;47.83;25.73;;;5.90;99.90;;;;;;5055423;28;20542;-55
2022/03/02 03:24:59;;;;;;;43.97;25.25;;;5.90;99.90;;;;;;5055029;28;20037;-56
2022/03/02 03:27:26;;;;;;;45.55;26.52;;;5.90;99.90;;;;;;5054862;28;20061;-55
2022/03/02 03:29:52;;;;;;;39.67;22.27;;;5.90;99.90;;;;;;5055163;28;20523;-55
2022/03/02 03:32:17;;;;;;;47.13;25.88;;;5.90;99.90;;;;;;5055762;28;20045;-54
2022/03/02 03:34:43;;;;;;;42.80;24.85;;;5.90;99.90;;;;;;5054752;28;20512;-56
2022/03/02 03:37:09;;;;;;;43.80;25.85;;;5.90;99.90;;;;;;5054593;28;20037;-55
2022/03/02 03:39:35;;;;;;;43.15;26.17;;;5.90;99.90;;;;;;5055199;28;20048;-55
2022/03/02 03:42:00;;;;;;;44.38;25.70;;;5.80;99.90;;;;;;5054868;28;20600;-56
2022/03/02 03:44:26;;;;;;;45.10;26.73;;;5.80;99.90;;;;;;5054427;28;20132;-55
2022/03/02 03:46:51;;;;;;;44.38;26.38;;;5.70;99.90;;;;;;5070314;28;20128;-56
2022/03/02 03:49:17;;;;;;;47.40;27.17;;;5.70;99.90;;;;;;5055097;28;20053;-56
2022/03/02 03:51:43;;;;;;;45.95;25.90;;;5.70;99.90;;;;;;5055046;28;20044;-55
2022/03/02 03:54:10;;;;;;;47.40;26.58;;;5.70;99.90;;;;;;5054426;28;20049;-56
2022/03/02 03:56:36;;;;;;;44.40;26.38;;;5.70;99.90;;;;;;5054412;28;20037;-55
2022/03/02 03:59:02;;;;;;;42.45;25.85;;;5.70;99.90;;;;;;5054738;28;20116;-55
2022/03/02 04:01:28;;;;;;;43.60;26.23;;;5.70;99.90;;;;;;5054647;28;20497;-55
2022/03/02 04:03:53;;;;;;;45.55;26.85;;;5.70;99.90;;;;;;5054569;28;20069;-55
2022/03/02 04:06:19;;;;;;;49.42;26.63;;;5.70;99.90;;;;;;5054510;28;20044;-55
2022/03/02 04:08:45;;;;;;;46.45;27.10;;;5.60;99.90;;;;;;5054787;28;20033;-55
2022/03/02 04:11:11;;;;;;;46.13;27.02;;;5.70;99.90;;;;;;5054412;28;20394;-55
2022/03/02 04:13:36;;;;;;;46.20;26.80;;;5.70;99.90;;;;;;5053447;28;20088;-54
2022/03/02 04:16:03;;;;;;;47.05;27.30;;;5.70;99.90;;;;;;5054513;28;20052;-55
2022/03/02 04:18:28;;;;;;;45.95;26.77;;;5.50;99.90;;;;;;5054512;28;20487;-53
2022/03/02 04:20:54;;;;;;;45.90;25.65;;;5.50;99.90;;;;;;5053170;28;20120;-55
2022/03/02 04:23:21;;;;;;;45.25;23.55;;;5.60;99.90;;;;;;5054387;28;20086;-55
2022/03/02 04:25:48;;;;;;;44.65;27.15;;;5.50;99.90;;;;;;5054013;28;20076;-53
2022/03/02 04:28:13;;;;;;;44.10;25.98;;;5.50;99.90;;;;;;5053799;28;20056;-56
2022/03/02 04:30:39;;;;;;;45.17;25.73;;;5.50;99.90;;;;;;5053755;28;20037;-56
2022/03/02 04:33:05;;;;;;;45.30;26.63;;;5.50;99.90;;;;;;5052802;28;20037;-56
2022/03/02 04:35:31;;;;;;;49.15;27.75;;;5.50;99.90;;;;;;5053488;28;20472;-55
2022/03/02 04:37:57;;;;;;;48.65;27.67;;;5.60;99.90;;;;;;5051755;28;20059;-55
2022/03/02 04:40:22;;;;;;;43.83;27.00;;;5.50;99.90;;;;;;5054064;28;20112;-55
2022/03/02 04:42:48;;;;;;;44.47;26.95;;;5.50;99.90;;;;;;5052616;28;20123;-55
2022/03/02 04:45:14;;;;;;;45.05;25.55;;;5.50;99.90;;;;;;5095057;22;20048;-51
2022/03/02 04:47:40;;;;;;;48.90;28.50;;;5.50;99.90;;;;;;5088688;28;20060;-52
2022/03/02 04:50:07;;;;;;;47.67;26.85;;;5.50;99.90;;;;;;5087503;28;20032;-52
2022/03/02 04:52:32;;;;;;;47.00;27.48;;;5.40;99.90;;;;;;5094091;28;20047;-52
2022/03/02 04:55:08;;;;;;;46.10;26.65;;;5.40;99.90;;;;;;5090925;28;20044;-53
2022/03/02 04:57:35;;;;;;;42.15;24.77;;;5.50;99.90;;;;;;5071728;28;20507;-52
2022/03/02 05:00:04;;;;;;;46.55;26.27;;;5.40;99.90;;;;;;5055380;28;20472;-52
2022/03/02 05:02:30;;;;;;;52.10;28.73;;;5.30;99.90;;;;;;5036375;28;20045;-52
2022/03/02 05:04:55;;;;;;;48.70;27.63;;;5.30;99.90;;;;;;5057214;28;20052;-52
2022/03/02 05:07:21;;;;;;;46.10;27.38;;;5.40;99.90;;;;;;5067155;28;20044;-52
2022/03/02 05:09:46;;;;;;;50.30;27.42;;;5.30;99.90;;;;;;5053517;28;20036;-53
2022/03/02 05:12:12;;;;;;;49.38;27.77;;;5.30;99.90;;;;;;5066033;28;20040;-52
2022/03/02 05:14:37;;;;;;;46.15;27.67;;;5.20;99.90;;;;;;5073549;28;20488;-52
2022/03/02 05:17:03;;;;;;;54.28;29.63;;;5.20;99.90;;;;;;5073028;28;20036;-52
2022/03/02 05:19:29;;;;;;;47.88;27.73;;;5.20;99.90;;;;;;5073247;28;20036;-52
2022/03/02 05:21:54;;;;;;;47.22;27.05;;;5.20;99.90;;;;;;5073454;28;20129;-52
2022/03/02 05:24:20;;;;;;;50.55;28.88;;;5.10;99.90;;;;;;5073375;28;20170;-52
2022/03/02 05:26:46;;;;;;;47.17;27.23;;;5.20;99.90;;;;;;5072463;28;20090;-50
2022/03/02 05:29:11;;;;;;;47.20;26.42;;;5.20;99.90;;;;;;5073110;28;20047;-50
2022/03/02 05:31:37;;;;;;;46.20;27.80;;;5.20;99.90;;;;;;5073249;28;20033;-53
2022/03/02 05:34:02;;;;;;;46.50;27.50;;;5.20;99.90;;;;;;5073138;28;20048;-52
2022/03/02 05:36:28;;;;;;;48.08;27.45;;;5.10;99.90;;;;;;5072042;28;20509;-52
2022/03/02 05:38:54;;;;;;;48.60;27.13;;;5.10;99.90;;;;;;5072892;28;20040;-50
2022/03/02 05:41:21;;;;;;;52.88;28.85;;;5.00;99.90;;;;;;5072916;28;20033;-49
2022/03/02 05:43:47;;;;;;;51.22;28.02;;;5.00;99.90;;;;;;5071772;28;20504;-50
2022/03/02 05:46:13;;;;;;;49.08;28.45;;;4.90;99.90;;;;;;5063852;28;20403;-51
2022/03/02 05:48:39;;;;;;;52.88;28.67;;;4.90;99.90;;;;;;5071755;28;20115;-51
2022/03/02 05:51:05;;;;;;;46.58;26.90;;;4.90;99.90;;;;;;5071134;28;20120;-50
2022/03/02 05:53:30;;;;;;;44.13;26.63;;;4.90;99.90;;;;;;5072477;28;20539;-52
2022/03/02 05:55:56;;;;;;;48.50;27.40;;;4.90;99.90;;;;;;5072496;28;20048;-54
2022/03/02 05:58:21;;;;;;;46.10;27.52;;;4.90;99.90;;;;;;5054747;28;20049;-52
2022/03/02 06:00:47;;;;;;;47.90;27.20;;;5.00;99.90;;;;;;5073012;28;20123;-49
2022/03/02 06:03:13;;;;;;;52.35;28.85;;;4.90;99.90;;;;;;5072597;28;20492;-49
2022/03/02 06:05:40;;;;;;;49.70;27.33;;;5.00;99.90;;;;;;5072570;28;20420;-51
2022/03/02 06:08:07;;;;;;;51.33;28.58;;;5.00;99.90;;;;;;5072375;28;20052;-53
2022/03/02 06:10:34;;;;;;;49.95;28.15;;;5.00;99.90;;;;;;5072354;28;20040;-52
2022/03/02 06:13:00;;;;;;;47.95;28.65;;;4.90;99.90;;;;;;5068210;28;20562;-51
2022/03/02 06:15:25;;;;;;;48.17;28.50;;;4.90;99.90;;;;;;5059607;28;20075;-53
2022/03/02 06:17:51;;;;;;;50.45;29.50;;;4.90;99.90;;;;;;5063124;28;20060;-54
2022/03/02 06:20:17;;;;;;;48.40;28.67;;;4.80;99.90;;;;;;5070326;28;20037;-53
2022/03/02 06:22:43;;;;;;;52.55;27.67;;;4.80;99.90;;;;;;5060227;28;20051;-54
2022/03/02 06:25:09;;;;;;;53.78;29.88;;;4.80;99.90;;;;;;5060476;28;20361;-54
2022/03/02 06:27:36;;;;;;;49.13;29.33;;;4.80;99.90;;;;;;5058518;28;20041;-53
2022/03/02 06:30:04;;;;;;;48.58;26.85;;;4.80;99.90;;;;;;5059292;28;20107;-55
2022/03/02 06:32:31;;;;;;;55.22;28.85;;;4.90;99.90;;;;;;5071560;28;20143;-54
2022/03/02 06:34:58;;;;;;;52.25;28.60;;;4.90;99.90;;;;;;5071508;28;20041;-53
2022/03/02 06:37:24;;;;;;;52.17;28.83;;;4.90;99.90;;;;;;5067134;28;20040;-54
2022/03/02 06:39:49;;;;;;;51.70;29.98;;;4.90;99.90;;;;;;5064145;28;20035;-52
2022/03/02 06:42:21;;;;;;;46.95;28.00;;;4.90;99.90;;;;;;5057893;28;20086;-51
2022/03/02 06:45:04;;;;;;;50.47;28.95;;;4.90;99.90;;;;;;5052519;28;20036;-51
2022/03/02 06:47:35;;;;;;;49.63;28.27;;;4.90;99.90;;;;;;5053740;28;20048;-54
2022/03/02 06:50:08;;;;;;;52.30;28.95;;;4.80;99.90;;;;;;5071618;28;20036;-54
2022/03/02 06:52:40;;;;;;;49.38;27.02;;;4.90;99.90;;;;;;5069702;28;20044;-53
2022/03/02 06:55:07;;;;;;;;;;;4.90;99.90;;;;;;5056759;28;20048;-54
2022/03/02 06:57:34;;;;;;;51.08;28.98;;;4.90;99.90;;;;;;5063629;28;19970;-54
2022/03/02 07:00:16;;;;;;;51.53;27.95;;;4.90;99.90;;;;;;5060967;28;20599;-53
2022/03/02 07:02:48;;;;;;;50.10;27.67;;;4.80;99.90;;;;;;5061327;28;20040;-54
2022/03/02 07:05:15;;;;;;;53.05;29.67;;;4.80;99.90;;;;;;5061997;28;20491;-53
2022/03/02 07:07:41;;;;;;;53.38;29.60;;;4.80;99.90;;;;;;5058527;28;20068;-54
2022/03/02 07:10:09;;;;;;;51.28;29.25;;;5.00;99.90;;;;;;5064835;28;20078;-54
2022/03/02 07:12:36;;;;;;;51.47;28.80;;;4.90;99.90;;;;;;5065056;28;20040;-54
2022/03/02 07:15:04;;;;;;;53.42;29.17;;;4.90;99.90;;;;;;5064686;28;20119;-54
2022/03/02 07:17:32;;;;;;;48.00;28.55;;;4.90;99.90;;;;;;5060343;28;20059;-53
2022/03/02 07:19:59;;;;;;;46.42;23.98;;;4.90;99.90;;;;;;5059308;28;20124;-54
2022/03/02 07:22:38;;;;;;;48.45;28.02;;;5.00;99.90;;;;;;5048385;28;20044;-54
2022/03/02 07:25:29;;;;;;;49.58;26.45;;;5.00;99.90;;;;;;5063876;28;20452;-53
2022/03/02 07:27:56;;;;;;;49.05;28.08;;;5.10;99.90;;;;;;5051407;28;20044;-54
2022/03/02 07:30:22;;;;;;;51.03;26.65;;;5.10;99.90;;;;;;5054674;28;20040;-54
2022/03/02 07:32:48;;;;;;;49.95;28.52;;;5.10;99.90;;;;;;5068067;28;20055;-54
2022/03/02 07:35:16;;;;;;;50.85;28.30;;;5.20;99.90;;;;;;5058466;28;20029;-54
2022/03/02 07:37:45;;;;;;;46.08;27.23;;;5.20;99.90;;;;;;5058073;28;20039;-54
2022/03/02 07:40:11;;;;;;;44.95;27.60;;;5.30;99.90;;;;;;5065085;28;20033;-52
2022/03/02 07:42:37;;;;;;;44.63;26.85;;;5.20;99.90;;;;;;5046828;28;20955;-54
2022/03/02 07:45:04;;;;;;;49.22;27.08;;;5.30;99.90;;;;;;5056028;28;20120;-54
2022/03/02 07:47:30;;;;;;;48.38;27.50;;;5.20;99.90;;;;;;5060732;28;20067;-54
2022/03/02 07:49:55;;;;;;;44.70;27.20;;;5.20;99.90;;;;;;5056548;28;20037;-54
2022/03/02 07:52:25;;;;;;;47.55;26.45;;;5.30;99.90;;;;;;5054359;28;20040;-51
2022/03/02 07:54:54;;;;;;;53.00;27.90;;;5.30;99.90;;;;;;5062704;28;20033;-54
2022/03/02 07:57:21;;;;;;;48.17;25.52;;;5.40;99.90;;;;;;5058242;28;20040;-54
2022/03/02 07:59:47;;;;;;;47.38;27.00;;;5.40;99.90;;;;;;5058976;28;20191;-54
2022/03/02 08:02:15;;;;;;;49.03;26.42;;;5.50;99.90;;;;;;5054770;28;20504;-54
2022/03/02 08:04:41;;;;;;;45.65;24.40;;;5.50;99.90;;;;;;5061095;28;20456;-54
2022/03/02 08:07:07;;;;;;;43.72;22.75;;;5.50;99.90;;;;;;5062878;28;20037;-54
2022/03/02 08:09:34;;;;;;;47.90;24.52;;;5.40;99.90;;;;;;5063439;28;20029;-54
2022/03/02 08:12:01;;;;;;;46.10;24.50;;;5.50;99.90;;;;;;5066125;28;20051;-54
2022/03/02 08:14:31;;;;;;;47.97;26.35;;;5.40;99.90;;;;;;5065425;28;20083;-55
2022/03/02 08:16:57;;;;;;;42.80;23.65;;;5.40;99.90;;;;;;5065357;28;20454;-54
2022/03/02 08:19:23;;;;;;;48.13;25.60;;;5.50;99.90;;;;;;5064220;28;20036;-54
2022/03/02 08:21:57;;;;;;;47.90;27.25;;;5.50;99.90;;;;;;5067826;28;20051;-54
2022/03/02 08:24:28;;;;;;;48.65;26.90;;;5.40;99.90;;;;;;5065748;28;20040;-54
2022/03/02 08:27:03;;;;;;;47.77;26.33;;;5.50;99.90;;;;;;5042079;28;20033;-53
2022/03/02 08:29:31;;;;;;;48.35;25.30;;;5.50;99.90;;;;;;5071576;28;20036;-53
2022/03/02 08:32:02;;;;;;;48.45;26.20;;;5.50;99.90;;;;;;5066103;28;20045;-54
2022/03/02 08:34:29;;;;;;;41.65;23.80;;;5.50;99.90;;;;;;5064998;28;20047;-55
2022/03/02 08:36:56;;;;;;;45.97;24.65;;;5.50;99.90;;;;;;5067890;28;20037;-54
2022/03/02 08:39:22;;;;;;;42.03;24.70;;;5.50;99.90;;;;;;5069479;28;20064;-55
2022/03/02 08:41:48;;;;;;;44.17;24.63;;;5.60;99.90;;;;;;5066328;28;20041;-54
2022/03/02 08:44:15;;;;;;;42.53;25.13;;;5.60;99.90;;;;;;5063833;28;20573;-55
2022/03/02 08:46:45;;;;;;;42.63;24.88;;;5.60;99.90;;;;;;5062367;28;20083;-52
2022/03/02 08:49:15;;;;;;;45.75;25.40;;;5.70;99.90;;;;;;5068466;28;20036;-53
2022/03/02 08:51:41;;;;;;;39.38;24.02;;;5.70;99.90;;;;;;5061139;28;20044;-54
2022/03/02 08:54:11;;;;;;;44.72;24.52;;;5.70;99.90;;;;;;5053969;28;20041;-54
2022/03/02 08:56:38;;;;;;;44.47;24.50;;;5.70;99.90;;;;;;5064779;28;20404;-54
2022/03/02 08:59:05;;;;;;;44.03;24.30;;;5.60;99.90;;;;;;5068514;28;20128;-53
2022/03/02 09:01:31;;;;;;;44.28;24.58;;;5.60;99.90;;;;;;5066004;28;20155;-52
2022/03/02 09:03:59;;;;;;;42.97;24.50;;;5.60;99.90;;;;;;5060593;28;20041;-51
2022/03/02 09:06:27;;;;;;;44.22;23.92;;;5.50;99.90;;;;;;5071579;28;20052;-52
2022/03/02 09:08:55;;;;;;;45.10;25.17;;;5.60;99.90;;;;;;5067003;28;20455;-49
2022/03/02 09:11:21;;;;;;;43.95;24.98;;;5.60;99.90;;;;;;5070864;28;20037;-50
2022/03/02 09:13:49;;;;;;;44.35;24.92;;;5.60;99.90;;;;;;5063910;28;20039;-51
2022/03/02 09:16:15;;;;;;;44.25;24.95;;;5.60;99.90;;;;;;5061602;28;20120;-48
2022/03/02 09:18:41;;;;;;;45.85;25.48;;;5.70;99.90;;;;;;5060959;28;20065;-48
2022/03/02 09:21:07;;;;;;;40.60;23.02;;;5.70;99.90;;;;;;5061597;28;20468;-49
2022/03/02 09:23:41;;;;;;;41.30;23.95;;;5.90;99.90;;;;;;5064820;28;20063;-48
2022/03/02 09:26:09;;;;;;;46.95;26.00;;;6.00;99.90;;;;;;5065191;28;20496;-49
2022/03/02 09:28:38;;;;;;;40.22;23.08;;;5.90;99.90;;;;;;5069166;28;20535;-51
2022/03/02 09:31:09;;;;;;;40.28;24.77;;;6.00;99.90;;;;;;5056106;28;20029;-48
2022/03/02 09:33:35;;;;;;;43.40;25.65;;;6.00;99.90;;;;;;5059561;28;20059;-49
2022/03/02 09:36:04;;;;;;;47.03;25.80;;;6.00;99.90;;;;;;5061016;28;20045;-52
2022/03/02 09:38:32;;;;;;;41.28;23.10;;;6.20;99.90;;;;;;5072157;28;20078;-50
2022/03/02 09:41:05;;;;;;;41.40;21.13;;;6.30;99.90;;;;;;5072906;28;20400;-49
2022/03/02 09:43:33;;;;;;;38.72;21.38;;;6.30;99.90;;;;;;5072091;28;20412;-49
2022/03/02 09:46:06;;;;;;;42.28;24.08;;;6.40;99.90;;;;;;5072066;28;20066;-52
2022/03/02 09:48:33;;;;;;;41.30;22.95;;;6.50;99.90;;;;;;5071212;28;20500;-49
2022/03/02 09:51:04;;;;;;;41.65;23.20;;;6.70;99.90;;;;;;5061777;28;20053;-49
2022/03/02 09:53:31;;;;;;;40.17;23.60;;;6.80;99.90;;;;;;5054439;28;20112;-51
2022/03/02 09:56:02;;;;;;;42.45;23.83;;;6.90;99.90;;;;;;5069924;28;20045;-51
2022/03/02 09:58:28;;;;;;;39.50;21.65;;;7.00;99.90;;;;;;5060791;28;20040;-50
2022/03/02 10:00:56;;;;;;;38.72;21.40;;;7.20;99.90;;;;;;5048533;28;20346;-52
2022/03/02 10:03:34;;;;;;;33.42;20.92;;;7.40;99.90;;;;;;5069747;28;20131;-49
2022/03/02 10:06:04;;;;;;;32.80;19.80;;;7.50;99.90;;;;;;5053191;28;20135;-50
2022/03/02 10:08:33;;;;;;;34.10;18.67;;;7.60;99.90;;;;;;5072797;28;20127;-50
2022/03/02 10:11:03;;;;;;;33.28;17.88;;;7.80;98.80;;;;;;5061185;28;20496;-50
2022/03/02 10:13:29;;;;;;;31.90;18.23;;;7.90;96.80;;;;;;5059227;28;20094;-50
2022/03/02 10:15:57;;;;;;;33.70;17.58;;;7.90;96.40;;;;;;5052808;28;20044;-53
2022/03/02 10:18:25;;;;;;;33.25;18.60;;;8.00;96.60;;;;;;5065673;28;20040;-52
2022/03/02 10:20:59;;;;;;;31.20;18.25;;;8.10;95.70;;;;;;5061231;28;20045;-51
2022/03/02 10:23:41;;;;;;;30.60;17.85;;;8.30;94.90;;;;;;5071677;28;20055;-50
2022/03/02 10:26:24;;;;;;;33.92;18.02;;;8.30;94.40;;;;;;5045517;28;20044;-50
2022/03/02 10:28:57;;;;;;;29.48;18.02;;;8.40;93.80;;;;;;5051392;28;20029;-52
2022/03/02 10:31:37;;;;;;;32.42;18.35;;;8.40;93.90;;;;;;5051966;28;20047;-50
2022/03/02 10:34:10;;;;;;;33.00;18.55;;;8.50;93.50;;;;;;5050814;28;20063;-50
2022/03/02 10:36:42;;;;;;;29.92;17.25;;;8.60;93.70;;;;;;5051657;28;20052;-52
2022/03/02 10:39:14;;;;;;;23.75;13.60;;;8.60;92.10;;;;;;5042965;28;20044;-51
2022/03/02 10:41:43;;;;;;;30.77;16.42;;;8.70;88.70;;;;;;5069633;28;20480;-52
2022/03/02 10:44:24;;;;;;;27.77;15.02;;;8.70;85.40;;;;;;5070718;28;20049;-52
2022/03/02 10:47:00;;;;;;;27.60;16.83;;;8.70;83.00;;;;;;5048126;28;20037;-52
2022/03/02 10:49:27;;;;;;;32.28;16.35;;;8.70;84.10;;;;;;5068325;28;20127;-54
2022/03/02 10:51:56;;;;;;;29.17;16.75;;;8.80;86.10;;;;;;5066047;28;20037;-53
2022/03/02 10:54:23;;;;;;;29.48;16.60;;;8.90;81.60;;;;;;5071289;28;20029;-54
2022/03/02 10:56:55;;;;;;;30.30;17.50;;;8.90;79.30;;;;;;5071376;28;20036;-54
2022/03/02 10:59:25;;;;;;;26.57;15.83;;;8.90;80.30;;;;;;5067003;28;20041;-53
2022/03/02 11:01:52;;;;;;;25.85;14.43;;;8.90;77.50;;;;;;5057393;28;20257;-54
2022/03/02 11:04:22;;;;;;;29.00;16.17;;;9.00;73.20;;;;;;5067226;28;20048;-54
2022/03/02 11:06:48;;;;;;;27.38;15.50;;;9.10;73.60;;;;;;5055072;28;20124;-54
2022/03/02 11:09:16;;;;;;;25.48;13.73;;;9.10;72.50;;;;;;5063053;28;20416;-54
2022/03/02 11:11:43;;;;;;;24.02;14.68;;;9.10;72.80;;;;;;5058250;28;20492;-54
2022/03/02 11:14:09;;;;;;;24.40;14.75;;;9.10;73.20;;;;;;5048862;28;20075;-54
2022/03/02 11:16:35;;;;;;;27.67;15.38;;;9.10;72.70;;;;;;5062625;28;20047;-54
2022/03/02 11:19:14;;;;;;;26.30;14.70;;;9.20;72.90;;;;;;5059536;28;20033;-54
2022/03/02 11:21:42;;;;;;;28.95;15.98;;;9.30;68.10;;;;;;5057603;28;20068;-54
2022/03/02 11:24:09;;;;;;;26.35;15.18;;;9.30;69.20;;;;;;5069580;28;20048;-54
2022/03/02 11:26:37;;;;;;;26.95;14.95;;;9.30;70.30;;;;;;5059628;28;20045;-54
2022/03/02 11:29:10;;;;;;;28.67;15.90;;;9.30;72.00;;;;;;5064020;28;20040;-54
2022/03/02 11:31:54;;;;;;;25.45;14.32;;;9.50;68.50;;;;;;5055461;28;20524;-53
2022/03/02 11:34:23;;;;;;;27.35;15.48;;;9.50;66.70;;;;;;5069443;28;20037;-54
2022/03/02 11:36:55;;;;;;;28.20;16.52;;;9.40;68.30;;;;;;5059412;28;20040;-54
2022/03/02 11:39:24;;;;;;;27.52;15.63;;;9.50;69.40;;;;;;5062201;28;20098;-54
2022/03/02 11:41:53;;;;;;;26.73;16.42;;;9.50;67.50;;;;;;5063850;28;20033;-55
2022/03/02 11:44:40;;;;;;;27.73;16.05;;;9.50;69.10;;;;;;5065906;28;20417;-53
2022/03/02 11:47:09;;;;;;;24.88;14.73;;;9.50;70.60;;;;;;5062264;28;20439;-54
2022/03/02 11:49:47;;;;;;;27.45;15.98;;;9.60;68.10;;;;;;5064932;28;20401;-54
2022/03/02 11:52:19;;;;;;;29.35;15.55;;;9.60;68.10;;;;;;5061219;28;20043;-54
2022/03/02 11:54:50;;;;;;;25.07;12.60;;;9.70;66.20;;;;;;5060224;28;20060;-54
2022/03/02 11:57:17;;;;;;;23.60;14.67;;;9.70;65.40;;;;;;5058213;28;20040;-56
2022/03/02 11:59:44;;;;;;;28.85;15.80;;;9.70;65.60;;;;;;5059837;28;20059;-54
2022/03/02 12:02:17;;;;;;;28.58;17.67;;;9.70;67.30;;;;;;5055161;28;20397;-56
2022/03/02 12:05:01;;;;;;;26.27;15.63;;;9.70;68.10;;;;;;5055535;28;20230;-56
2022/03/02 12:07:42;;;;;;;25.98;15.05;;;9.70;66.10;;;;;;5054305;28;20033;-54
2022/03/02 12:10:29;;;;;;;28.05;16.63;;;9.80;63.80;;;;;;5060019;28;20127;-56
2022/03/02 12:12:56;;;;;;;28.92;16.10;;;9.80;64.90;;;;;;5063298;28;20055;-55
2022/03/02 12:15:24;;;;;;;29.75;16.55;;;9.70;67.10;;;;;;5066482;28;20064;-56
2022/03/02 12:17:51;;;;;;;27.52;16.35;;;9.80;67.90;;;;;;5066564;28;20044;-56
2022/03/02 12:20:20;;;;;;;28.73;16.42;;;9.90;66.60;;;;;;5074542;28;20032;-56
2022/03/02 12:22:51;;;;;;;26.27;15.05;;;10.00;64.10;;;;;;5073365;28;20068;-56
2022/03/02 12:25:21;;;;;;;29.60;16.58;;;10.00;62.80;;;;;;5074396;28;20098;-56
2022/03/02 12:28:07;;;;;;;27.38;14.25;;;10.00;63.40;;;;;;5074439;28;20033;-56
2022/03/02 12:30:36;;;;;;;27.48;14.63;;;10.00;64.20;;;;;;5073407;28;20040;-56
2022/03/02 12:33:03;;;;;;;26.73;14.98;;;10.00;63.10;;;;;;5065425;28;20100;-56
2022/03/02 12:35:28;;;;;;;26.80;15.48;;;10.00;64.40;;;;;;5062799;28;20080;-56
2022/03/02 12:37:59;;;;;;;27.60;16.17;;;10.10;63.80;;;;;;5066666;28;20127;-56